Time;durP1;ratioP1;P1;durP2;ratioP2;P2;SDS_P1;SDS_P2;PMS_P1;PMS_P2;Temp;Humidity;BMP_temperature;BMP_pressure;BME280_temperature;BME280_humidity;BME280_pressure;Samples;Min_cycle;Max_cycle;Signal;HPM_P1;HPM_P2
2022/04/05 00:02:08;;;;;;;10.70;7.90;;;;;;;7.05;94.69;98990.84;5076984;28;21043;-68
2022/04/05 00:04:35;;;;;;;10.30;8.13;;;;;;;7.06;94.64;98988.03;5078271;28;20451;-67
2022/04/05 00:07:02;;;;;;;12.57;9.20;;;;;;;7.03;94.67;98980.38;5078104;28;20484;-68
2022/04/05 00:09:29;;;;;;;12.10;9.10;;;;;;;6.87;95.22;98978.34;5079182;28;20475;-68
2022/04/05 00:11:55;;;;;;;14.47;9.10;;;;;;;7.03;95.09;98977.72;5078268;28;20476;-67
2022/04/05 00:14:23;;;;;;;14.47;9.60;;;;;;;7.04;94.71;98976.72;5079223;28;20443;-69
2022/04/05 00:16:50;;;;;;;13.13;9.73;;;;;;;6.84;94.95;98975.16;5078926;28;20483;-68
2022/04/05 00:19:19;;;;;;;12.17;8.63;;;;;;;6.93;95.36;98976.94;5079030;28;20827;-69
2022/04/05 00:21:45;;;;;;;14.93;10.37;;;;;;;6.91;95.02;98976.22;5077557;28;20491;-68
2022/04/05 00:24:12;;;;;;;14.60;9.77;;;;;;;6.93;94.88;98980.44;5079677;28;20521;-69
2022/04/05 00:26:39;;;;;;;12.20;9.53;;;;;;;7.05;94.94;98983.72;5078326;28;20495;-69
2022/04/05 00:29:06;;;;;;;14.80;10.17;;;;;;;6.91;94.67;98977.09;5078682;28;20471;-68
2022/04/05 00:31:34;;;;;;;11.83;8.53;;;;;;;6.90;95.05;98972.75;5078034;28;20476;-68
2022/04/05 00:34:01;;;;;;;16.00;10.63;;;;;;;6.90;95.08;98977.22;5063324;28;20881;-69
2022/04/05 00:36:27;;;;;;;14.37;10.20;;;;;;;7.01;94.81;98976.19;5079976;28;20472;-69
2022/04/05 00:38:54;;;;;;;14.30;9.97;;;;;;;6.94;94.74;98973.28;5083067;28;20428;-69
2022/04/05 00:41:21;;;;;;;17.90;11.40;;;;;;;6.88;94.74;98977.38;5082075;28;20480;-69
2022/04/05 00:43:48;;;;;;;14.10;10.17;;;;;;;6.99;94.37;98979.00;5082560;28;22023;-69
2022/04/05 00:46:15;;;;;;;14.33;9.40;;;;;;;6.95;94.42;98980.28;5080343;28;20476;-67
2022/04/05 00:48:48;;;;;;;13.70;9.70;;;;;;;7.02;93.94;98980.53;5072235;28;20526;-69
2022/04/05 00:51:16;;;;;;;12.00;8.73;;;;;;;6.98;93.77;98983.47;5081644;28;21017;-69
2022/04/05 00:53:43;;;;;;;12.23;9.20;;;;;;;7.07;93.76;98976.44;5081695;28;20439;-67
2022/04/05 00:56:11;;;;;;;14.90;10.37;;;;;;;7.00;93.84;98978.00;5081616;28;20534;-68
2022/04/05 00:58:38;;;;;;;15.80;10.93;;;;;;;6.96;93.94;98979.28;5082104;28;20440;-68
2022/04/05 01:01:06;;;;;;;16.67;10.37;;;;;;;6.89;94.24;98978.19;5081005;28;20526;-67
2022/04/05 01:03:33;;;;;;;16.00;10.77;;;;;;;6.86;94.17;98982.00;5070772;28;20437;-68
2022/04/05 01:06:04;;;;;;;16.20;10.33;;;;;;;6.88;94.17;98981.88;5081229;28;20479;-68
2022/04/05 01:08:31;;;;;;;15.63;10.73;;;;;;;6.90;94.25;98991.34;5082536;28;20507;-69
2022/04/05 01:11:00;;;;;;;15.60;9.90;;;;;;;6.94;93.85;98983.91;5080061;28;20500;-67
2022/04/05 01:13:28;;;;;;;15.03;10.33;;;;;;;6.84;94.27;98999.91;5076018;28;20478;-68
2022/04/05 01:15:55;;;;;;;13.47;9.13;;;;;;;6.91;93.96;98992.16;5081683;28;20471;-68
2022/04/05 01:18:22;;;;;;;14.93;9.40;;;;;;;6.75;94.19;99004.28;5082702;28;20436;-68
2022/04/05 01:20:49;;;;;;;11.63;8.80;;;;;;;6.79;94.47;98994.22;5079449;28;20464;-68
2022/04/05 01:23:21;;;;;;;13.30;9.00;;;;;;;6.67;94.28;99000.69;5081560;28;20456;-66
2022/04/05 01:25:51;;;;;;;9.97;6.20;;;;;;;6.88;93.54;99003.94;5081343;28;20537;-68
2022/04/05 01:28:18;;;;;;;9.30;7.07;;;;;;;6.85;93.05;99003.41;5082057;28;20491;-68
2022/04/05 01:30:44;;;;;;;8.73;6.77;;;;;;;6.82;92.98;99001.88;5080247;28;20896;-67
2022/04/05 01:33:11;;;;;;;12.07;7.70;;;;;;;6.85;92.79;98998.09;5074360;28;20455;-69
2022/04/05 01:35:39;;;;;;;9.10;7.27;;;;;;;6.76;93.17;99000.63;5080944;28;20460;-68
2022/04/05 01:38:08;;;;;;;11.50;7.20;;;;;;;6.71;93.39;98986.97;5081195;28;20474;-70
2022/04/05 01:40:35;;;;;;;10.60;7.30;;;;;;;6.59;94.33;98988.13;5080080;28;20464;-70
2022/04/05 01:43:03;;;;;;;10.30;7.40;;;;;;;6.70;93.98;99000.38;5081229;28;20721;-72
2022/04/05 01:45:30;;;;;;;7.00;5.40;;;;;;;6.70;93.98;98995.06;5079660;28;20543;-71
2022/04/05 01:47:57;;;;;;;9.13;5.73;;;;;;;6.74;93.66;98985.84;5081607;28;20460;-68
2022/04/05 01:50:24;;;;;;;7.27;5.10;;;;;;;6.82;93.09;98977.97;5079334;28;20467;-68
2022/04/05 01:52:51;;;;;;;6.23;5.03;;;;;;;6.79;92.61;98984.41;5081133;28;20456;-68
2022/04/05 01:55:18;;;;;;;8.07;5.27;;;;;;;6.73;92.60;98985.00;5076502;28;20978;-68
2022/04/05 01:57:44;;;;;;;6.53;4.43;;;;;;;6.74;92.64;98980.53;5081911;28;20443;-67
2022/04/05 02:00:15;;;;;;;7.50;5.07;;;;;;;6.77;92.32;98986.38;5079768;28;20547;-68
2022/04/05 02:02:42;;;;;;;4.87;3.87;;;;;;;6.76;91.97;98992.66;5080695;28;20451;-69
2022/04/05 02:05:10;;;;;;;6.13;3.90;;;;;;;6.81;91.89;98986.09;5080321;28;20523;-70
2022/04/05 02:07:37;;;;;;;5.63;4.97;;;;;;;6.71;92.18;98986.97;5080710;28;20480;-69
2022/04/05 02:10:05;;;;;;;4.60;3.40;;;;;;;6.57;92.25;98976.84;5080763;28;20451;-69
2022/04/05 02:12:32;;;;;;;5.60;4.60;;;;;;;6.59;92.27;98977.50;5080867;28;20468;-69
2022/04/05 02:14:58;;;;;;;6.03;4.27;;;;;;;6.64;92.37;98980.56;5081272;28;20514;-69
2022/04/05 02:17:27;;;;;;;6.30;5.03;;;;;;;6.59;92.04;98988.13;5080168;28;20472;-69
2022/04/05 02:19:55;;;;;;;6.50;4.40;;;;;;;6.67;91.86;98980.28;5080159;28;20476;-71
2022/04/05 02:22:22;;;;;;;7.37;5.27;;;;;;;6.56;91.56;98981.31;5079599;28;20479;-68
2022/04/05 02:24:48;;;;;;;6.20;4.63;;;;;;;6.63;91.90;98986.88;5075440;28;20441;-68
2022/04/05 02:27:15;;;;;;;7.60;5.90;;;;;;;6.58;92.04;98982.00;5068115;28;20480;-68
2022/04/05 02:29:42;;;;;;;6.57;5.17;;;;;;;6.60;92.26;98993.31;5079885;28;20478;-68
2022/04/05 02:32:09;;;;;;;8.90;6.40;;;;;;;6.57;92.82;98990.94;5079880;28;20506;-67
2022/04/05 02:34:37;;;;;;;9.50;6.40;;;;;;;6.65;92.69;98992.88;5081123;28;20494;-68
2022/04/05 02:37:04;;;;;;;9.40;6.23;;;;;;;6.61;93.07;98999.44;5079731;28;20479;-68
2022/04/05 02:39:31;;;;;;;10.13;7.07;;;;;;;6.64;93.20;98998.34;5072896;28;20444;-68
2022/04/05 02:41:58;;;;;;;7.53;6.40;;;;;;;6.69;93.53;99001.38;5065041;28;20530;-68
2022/04/05 02:44:25;;;;;;;14.13;8.93;;;;;;;6.64;93.41;99009.78;5079529;28;20483;-68
2022/04/05 02:46:51;;;;;;;12.53;8.70;;;;;;;6.69;93.66;99012.84;5080094;28;20479;-68
2022/04/05 02:49:18;;;;;;;11.30;8.00;;;;;;;6.71;93.78;99025.97;5079791;28;20482;-67
2022/04/05 02:51:46;;;;;;;10.73;8.13;;;;;;;6.79;93.25;99018.13;5078923;28;20522;-68
2022/04/05 02:54:13;;;;;;;13.50;9.70;;;;;;;6.69;93.50;99023.47;5079412;28;20460;-68
2022/04/05 02:56:40;;;;;;;12.13;8.90;;;;;;;6.70;93.85;99021.63;5039633;28;20477;-68
2022/04/05 02:59:07;;;;;;;11.67;8.53;;;;;;;6.66;94.07;99022.91;5079215;28;20432;-68
2022/04/05 03:01:33;;;;;;;13.20;8.10;;;;;;;6.79;93.82;99031.41;5079764;28;20502;-70
2022/04/05 03:04:00;;;;;;;12.07;9.07;;;;;;;6.79;93.62;99031.41;5079923;28;20455;-68
2022/04/05 03:06:27;;;;;;;9.93;8.30;;;;;;;6.73;93.36;99032.81;5078420;28;21045;-69
2022/04/05 03:08:56;;;;;;;10.67;8.00;;;;;;;6.76;93.59;99029.84;5079745;28;20475;-69
2022/04/05 03:11:23;;;;;;;8.57;6.70;;;;;;;6.72;93.56;99028.50;5078665;28;20492;-68
2022/04/05 03:13:50;;;;;;;8.23;6.40;;;;;;;6.73;93.29;99031.97;5080397;28;20918;-68
2022/04/05 03:16:17;;;;;;;8.20;6.37;;;;;;;6.65;93.68;99029.19;5071773;28;20477;-68
2022/04/05 03:18:45;;;;;;;7.73;6.27;;;;;;;6.72;93.26;99038.28;5079713;28;20467;-66
2022/04/05 03:21:12;;;;;;;9.20;5.57;;;;;;;6.59;93.28;99033.28;5078164;28;20476;-67
2022/04/05 03:23:40;;;;;;;7.50;5.97;;;;;;;6.58;93.16;99037.75;5080492;28;20448;-68
2022/04/05 03:26:08;;;;;;;7.17;5.80;;;;;;;6.63;93.03;99042.66;5079523;28;20482;-67
2022/04/05 03:28:35;;;;;;;7.13;5.13;;;;;;;6.64;93.21;99044.31;5080067;28;20974;-67
2022/04/05 03:31:01;;;;;;;7.60;5.90;;;;;;;6.70;92.81;99048.19;5078867;28;20486;-68
2022/04/05 03:33:29;;;;;;;5.27;4.53;;;;;;;6.61;92.95;99052.56;5079541;28;21037;-68
2022/04/05 03:35:56;;;;;;;7.73;6.00;;;;;;;6.58;93.12;99047.56;5078575;28;20475;-68
2022/04/05 03:38:23;;;;;;;7.97;6.00;;;;;;;6.63;92.99;99050.63;5079736;28;20448;-68
2022/04/05 03:40:49;;;;;;;6.90;5.13;;;;;;;6.63;92.41;99052.41;5039164;28;20553;-67
2022/04/05 03:43:18;;;;;;;8.60;6.60;;;;;;;6.67;92.64;99054.66;5039704;28;20499;-67
2022/04/05 03:45:44;;;;;;;7.60;5.10;;;;;;;6.59;92.38;99058.00;5066590;28;20523;-68
2022/04/05 03:48:11;;;;;;;7.40;5.50;;;;;;;6.54;92.58;99049.63;5079039;28;20464;-68
2022/04/05 03:50:38;;;;;;;7.90;5.87;;;;;;;6.62;92.24;99054.25;5078495;28;20471;-68
2022/04/05 03:53:05;;;;;;;6.30;5.50;;;;;;;6.54;91.97;99048.81;5078650;28;20478;-67
2022/04/05 03:55:31;;;;;;;8.30;5.60;;;;;;;6.48;91.80;99057.38;5079180;28;20498;-66
2022/04/05 03:57:58;;;;;;;7.60;5.60;;;;;;;6.47;91.94;99053.03;5079299;28;20440;-66
2022/04/05 04:00:26;;;;;;;7.77;5.67;;;;;;;6.47;92.02;99061.81;5075314;28;20478;-67
2022/04/05 04:02:53;;;;;;;7.90;5.80;;;;;;;6.48;91.58;99060.03;5055623;28;20459;-67
2022/04/05 04:05:20;;;;;;;7.50;5.80;;;;;;;6.44;91.94;99059.47;5078296;28;21004;-66
2022/04/05 04:07:48;;;;;;;6.77;5.53;;;;;;;6.59;91.82;99059.84;5080182;28;20463;-67
2022/04/05 04:10:15;;;;;;;6.07;5.47;;;;;;;6.51;91.61;99065.03;5080202;28;20520;-67
2022/04/05 04:12:42;;;;;;;6.53;5.83;;;;;;;6.53;91.53;99061.25;5063234;28;20760;-67
2022/04/05 04:15:10;;;;;;;7.13;6.43;;;;;;;6.52;91.21;99072.03;5075509;28;20451;-66
2022/04/05 04:17:38;;;;;;;6.20;5.03;;;;;;;6.50;91.50;99064.19;5069835;28;20452;-67
2022/04/05 04:20:06;;;;;;;6.60;5.90;;;;;;;6.39;91.75;99061.72;5062299;28;20461;-67
2022/04/05 04:22:32;;;;;;;6.63;5.90;;;;;;;6.38;91.98;99066.16;5063873;28;20492;-66
2022/04/05 04:24:59;;;;;;;8.10;6.30;;;;;;;6.43;91.84;99065.75;5067499;28;20446;-67
2022/04/05 04:27:26;;;;;;;6.70;5.97;;;;;;;6.33;91.91;99063.09;5061526;28;21148;-67
2022/04/05 04:29:53;;;;;;;7.03;6.10;;;;;;;6.37;91.76;99075.13;5063831;28;20571;-67
2022/04/05 04:32:20;;;;;;;8.33;6.13;;;;;;;6.41;91.83;99068.56;5061991;28;20479;-67
2022/04/05 04:34:48;;;;;;;8.37;6.40;;;;;;;6.43;91.52;99073.72;5062525;28;20449;-66
2022/04/05 04:37:15;;;;;;;10.80;7.03;;;;;;;6.43;91.69;99073.72;5065390;28;20476;-65
2022/04/05 04:39:42;;;;;;;7.43;5.57;;;;;;;6.38;91.98;99071.47;5061787;28;20991;-65
2022/04/05 04:42:09;;;;;;;6.13;5.50;;;;;;;6.42;91.45;99069.38;5070931;28;20513;-65
2022/04/05 04:44:36;;;;;;;10.20;6.33;;;;;;;6.48;91.38;99073.31;5066498;28;20480;-65
2022/04/05 04:47:03;;;;;;;9.77;6.40;;;;;;;6.40;91.43;99068.69;5062706;28;20476;-65
2022/04/05 04:49:30;;;;;;;9.80;6.07;;;;;;;6.30;91.54;99075.81;5075533;28;20503;-65
2022/04/05 04:51:58;;;;;;;8.10;6.00;;;;;;;6.48;91.33;99075.97;5078492;28;20501;-65
2022/04/05 04:54:25;;;;;;;9.90;5.40;;;;;;;6.32;91.28;99088.00;5070897;28;20452;-65
2022/04/05 04:56:52;;;;;;;12.30;5.43;;;;;;;6.37;91.31;99085.75;5082018;28;20579;-65
2022/04/05 04:59:18;;;;;;;8.33;6.27;;;;;;;6.28;91.09;99077.78;5082395;28;20440;-65
2022/04/05 05:01:45;;;;;;;8.67;5.47;;;;;;;6.36;91.28;99086.72;5079412;28;20467;-65
2022/04/05 05:04:12;;;;;;;10.13;5.70;;;;;;;6.40;90.82;99080.13;5081929;28;20505;-66
2022/04/05 05:06:39;;;;;;;6.40;5.37;;;;;;;6.44;90.82;99083.38;5081806;28;20601;-64
2022/04/05 05:09:07;;;;;;;6.97;6.10;;;;;;;6.45;90.68;99095.66;5082692;28;20495;-65
2022/04/05 05:11:33;;;;;;;8.07;5.43;;;;;;;6.52;90.09;99095.91;5080125;28;20543;-65
2022/04/05 05:14:00;;;;;;;10.97;7.23;;;;;;;6.53;89.69;99095.78;5073633;28;20468;-67
2022/04/05 05:16:27;;;;;;;10.77;5.40;;;;;;;6.58;90.04;99103.31;5082165;28;20476;-65
2022/04/05 05:18:54;;;;;;;9.37;6.30;;;;;;;6.53;89.75;99102.91;5079433;28;20452;-65
2022/04/05 05:21:23;;;;;;;9.20;5.90;;;;;;;6.58;89.60;99108.63;5080947;28;21067;-64
2022/04/05 05:23:49;;;;;;;7.40;5.50;;;;;;;6.66;89.76;99106.06;5081594;28;20444;-65
2022/04/05 05:26:18;;;;;;;8.30;5.97;;;;;;;6.66;89.37;99100.75;5061752;28;20492;-65
2022/04/05 05:28:44;;;;;;;10.30;5.50;;;;;;;6.64;89.58;99113.34;5081017;28;21050;-65
2022/04/05 05:31:11;;;;;;;6.37;5.60;;;;;;;6.66;89.67;99111.38;5065635;28;20537;-65
2022/04/05 05:33:38;;;;;;;9.33;5.17;;;;;;;6.66;89.44;99115.88;5080345;28;20519;-65
2022/04/05 05:36:05;;;;;;;10.70;6.90;;;;;;;6.82;89.46;99124.06;5080437;28;20463;-65
2022/04/05 05:38:32;;;;;;;10.10;6.40;;;;;;;6.70;89.19;99126.09;5081861;28;20478;-65
2022/04/05 05:40:58;;;;;;;6.87;6.00;;;;;;;6.56;90.33;99123.84;5080926;28;20482;-65
2022/04/05 05:43:26;;;;;;;8.20;7.40;;;;;;;6.70;90.20;99126.09;5077974;28;20460;-65
2022/04/05 05:45:53;;;;;;;12.60;8.03;;;;;;;6.76;89.48;99128.16;5061395;28;20483;-65
2022/04/05 05:48:20;;;;;;;14.77;7.40;;;;;;;6.64;89.87;99131.94;5061697;28;20429;-65
2022/04/05 05:50:47;;;;;;;9.60;7.70;;;;;;;6.66;89.83;99122.00;5060079;28;20477;-65
2022/04/05 05:53:14;;;;;;;12.00;7.07;;;;;;;6.78;89.86;99125.34;5061072;28;20457;-65
2022/04/05 05:55:41;;;;;;;9.83;7.30;;;;;;;6.85;89.58;99141.56;5061447;28;20472;-67
2022/04/05 05:58:07;;;;;;;9.57;7.60;;;;;;;6.91;89.18;99133.84;5061739;28;20536;-65
2022/04/05 06:00:35;;;;;;;9.80;7.43;;;;;;;6.85;89.07;99139.72;5060942;28;20480;-65
2022/04/05 06:03:03;;;;;;;11.90;6.90;;;;;;;7.03;88.77;99138.97;5061293;28;20471;-65
2022/04/05 06:05:31;;;;;;;9.13;7.60;;;;;;;7.05;87.97;99139.66;5061244;28;20464;-65
2022/04/05 06:07:58;;;;;;;7.50;6.70;;;;;;;7.06;88.33;99154.63;5058801;28;20449;-64
2022/04/05 06:10:25;;;;;;;9.67;6.73;;;;;;;7.07;87.99;99149.16;5058674;28;20575;-65
2022/04/05 06:12:55;;;;;;;7.87;6.10;;;;;;;7.11;88.05;99147.06;5060904;28;20460;-65
2022/04/05 06:15:22;;;;;;;9.17;7.23;;;;;;;6.97;88.10;99151.84;5060734;28;20460;-65
2022/04/05 06:17:50;;;;;;;15.67;7.30;;;;;;;7.19;87.68;99147.19;5061674;28;20443;-64
2022/04/05 06:20:19;;;;;;;7.77;6.97;;;;;;;7.21;87.59;99144.38;5056893;28;20448;-65
2022/04/05 06:22:48;;;;;;;7.33;6.63;;;;;;;7.26;87.67;99158.06;5060051;28;20479;-65
2022/04/05 06:25:16;;;;;;;8.70;5.83;;;;;;;7.25;87.64;99145.75;5061199;28;20913;-65
2022/04/05 06:27:43;;;;;;;11.13;6.20;;;;;;;7.34;87.76;99150.19;5061626;28;20520;-64
2022/04/05 06:30:11;;;;;;;9.03;6.20;;;;;;;7.49;87.68;99153.19;5060242;28;20495;-65
2022/04/05 06:32:38;;;;;;;8.73;6.00;;;;;;;7.56;86.96;99156.09;5061365;28;20514;-65
2022/04/05 06:35:09;;;;;;;8.30;6.73;;;;;;;7.70;86.31;99155.59;5061223;28;20478;-65
2022/04/05 06:37:36;;;;;;;6.90;5.80;;;;;;;7.65;86.11;99156.03;5060195;28;20924;-65
2022/04/05 06:40:04;;;;;;;7.17;5.33;;;;;;;7.57;86.14;99157.75;5061373;28;20495;-65
2022/04/05 06:42:31;;;;;;;6.83;5.13;;;;;;;7.63;86.10;99162.50;5060166;28;20549;-65
2022/04/05 06:44:57;;;;;;;7.10;5.73;;;;;;;7.48;86.79;99155.03;5060909;28;20519;-65
2022/04/05 06:47:24;;;;;;;7.33;4.90;;;;;;;7.62;86.33;99160.81;5060215;28;20552;-65
2022/04/05 06:49:51;;;;;;;5.17;4.27;;;;;;;7.75;85.85;99158.66;5059810;28;20523;-65
2022/04/05 06:52:20;;;;;;;5.53;4.60;;;;;;;7.42;86.50;99163.59;5059981;28;20477;-65
2022/04/05 06:54:46;;;;;;;6.00;4.53;;;;;;;7.47;86.26;99165.81;5060797;28;20506;-65
2022/04/05 06:57:13;;;;;;;3.97;3.50;;;;;;;7.64;85.86;99162.34;5059960;28;20468;-65
2022/04/05 06:59:40;;;;;;;5.30;4.40;;;;;;;7.77;85.24;99162.00;5060154;28;20436;-65
2022/04/05 07:02:07;;;;;;;6.90;4.17;;;;;;;7.88;85.24;99167.13;5059749;28;20534;-65
2022/04/05 07:04:33;;;;;;;5.33;4.13;;;;;;;7.86;84.22;99161.13;5060052;28;20494;-65
2022/04/05 07:07:00;;;;;;;6.47;4.30;;;;;;;7.72;84.42;99169.59;5059286;28;20553;-65
2022/04/05 07:09:28;;;;;;;5.60;4.40;;;;;;;7.58;85.52;99164.78;5060033;28;20461;-65
2022/04/05 07:11:55;;;;;;;5.23;4.37;;;;;;;7.70;85.62;99160.91;5058826;28;20491;-65
2022/04/05 07:14:22;;;;;;;6.53;4.77;;;;;;;8.16;84.53;99160.88;5059985;28;20421;-65
2022/04/05 07:16:48;;;;;;;5.70;4.03;;;;;;;7.78;84.60;99162.81;5059799;28;21024;-65
2022/04/05 07:19:15;;;;;;;5.67;4.03;;;;;;;8.13;84.08;99155.88;5060086;28;20425;-65
2022/04/05 07:21:42;;;;;;;8.43;4.70;;;;;;;7.94;83.22;99154.19;5058554;28;20828;-65
2022/04/05 07:24:09;;;;;;;9.07;4.03;;;;;;;8.17;84.01;99151.91;5060193;28;21075;-65
2022/04/05 07:26:37;;;;;;;4.50;3.93;;;;;;;8.43;82.66;99150.16;5059142;28;20481;-65
2022/04/05 07:29:03;;;;;;;8.87;5.10;;;;;;;8.44;82.31;99153.69;5060290;28;20473;-65
2022/04/05 07:31:30;;;;;;;6.60;4.37;;;;;;;8.72;81.40;99150.91;5059390;28;20484;-65
2022/04/05 07:33:57;;;;;;;7.33;4.33;;;;;;;8.70;81.58;99144.88;5060287;28;20449;-65
2022/04/05 07:36:24;;;;;;;6.57;4.03;;;;;;;8.52;81.87;99150.25;5059108;28;20491;-65
2022/04/05 07:38:52;;;;;;;5.10;3.77;;;;;;;8.43;81.95;99136.84;5059475;28;20452;-65
2022/04/05 07:41:19;;;;;;;8.80;4.80;;;;;;;8.43;82.01;99139.53;5059189;28;21042;-65
2022/04/05 07:43:47;;;;;;;5.87;4.33;;;;;;;8.61;81.74;99143.97;5063386;28;21004;-65
2022/04/05 07:46:14;;;;;;;7.57;3.93;;;;;;;8.85;81.70;99145.97;5063356;28;20476;-65
2022/04/05 07:48:41;;;;;;;5.90;3.80;;;;;;;8.87;80.79;99144.03;5063415;28;20975;-65
2022/04/05 07:51:08;;;;;;;5.00;3.70;;;;;;;8.53;80.95;99142.09;5063108;28;20476;-65
2022/04/05 07:53:34;;;;;;;8.30;4.47;;;;;;;8.83;80.28;99140.81;5063568;28;20456;-65
2022/04/05 07:56:01;;;;;;;5.50;3.43;;;;;;;8.90;79.22;99150.84;5062877;28;20495;-65
2022/04/05 07:58:28;;;;;;;3.90;3.10;;;;;;;8.88;79.72;99142.19;5063737;28;20680;-65
2022/04/05 08:00:56;;;;;;;6.80;3.90;;;;;;;9.10;79.94;99146.16;5063585;28;20470;-65
2022/04/05 08:03:23;;;;;;;4.90;3.40;;;;;;;8.81;79.66;99145.47;5063237;28;21242;-68
2022/04/05 08:05:50;;;;;;;4.70;2.70;;;;;;;8.58;80.10;99144.31;5063245;28;20468;-65
2022/04/05 08:08:17;;;;;;;4.40;3.30;;;;;;;8.44;80.14;99149.19;5062959;28;20444;-65
2022/04/05 08:10:43;;;;;;;6.40;3.37;;;;;;;8.34;80.57;99136.94;5062492;28;20484;-65
2022/04/05 08:13:10;;;;;;;5.90;3.60;;;;;;;8.42;80.81;99143.19;5063555;28;20452;-65
2022/04/05 08:15:39;;;;;;;4.93;3.73;;;;;;;8.72;80.22;99145.59;5062767;28;20517;-65
2022/04/05 08:18:08;;;;;;;6.10;5.30;;;;;;;8.73;80.32;99150.75;5064115;28;20817;-65
2022/04/05 08:20:36;;;;;;;5.13;3.70;;;;;;;8.54;81.45;99146.47;5062421;28;20464;-65
2022/04/05 08:23:03;;;;;;;5.10;3.63;;;;;;;8.55;81.34;99153.44;5062861;28;20568;-65
2022/04/05 08:25:30;;;;;;;6.73;3.80;;;;;;;8.77;81.41;99153.94;5062437;28;20472;-65
2022/04/05 08:27:57;;;;;;;7.33;4.03;;;;;;;8.81;81.25;99153.47;5063681;28;20425;-65
2022/04/05 08:30:24;;;;;;;5.47;3.60;;;;;;;8.66;81.46;99147.88;5062590;28;20499;-65
2022/04/05 08:32:51;;;;;;;4.60;3.70;;;;;;;8.62;82.27;99157.16;5063018;28;20445;-66
2022/04/05 08:35:20;;;;;;;4.60;3.93;;;;;;;8.70;81.81;99156.41;5063120;28;20830;-65
2022/04/05 08:37:48;;;;;;;6.27;3.93;;;;;;;8.79;82.00;99157.28;5062760;28;20460;-66
2022/04/05 08:40:16;;;;;;;4.70;3.80;;;;;;;8.57;82.19;99154.13;5062674;28;20448;-65
2022/04/05 08:42:44;;;;;;;5.70;3.77;;;;;;;8.64;82.60;99157.81;5062782;28;20456;-65
2022/04/05 08:45:13;;;;;;;6.23;3.60;;;;;;;8.47;83.16;99153.38;5062577;28;20514;-65
2022/04/05 08:47:42;;;;;;;4.03;3.63;;;;;;;8.58;83.04;99157.63;5063160;28;20491;-65
2022/04/05 08:50:10;;;;;;;7.07;4.70;;;;;;;8.80;82.68;99151.81;5062476;28;20489;-65
2022/04/05 08:52:38;;;;;;;5.30;4.00;;;;;;;8.92;82.11;99156.84;5062096;28;20472;-65
2022/04/05 08:55:06;;;;;;;6.00;4.00;;;;;;;8.84;81.65;99157.66;5062319;28;20975;-65
2022/04/05 08:57:32;;;;;;;4.43;3.67;;;;;;;9.09;82.13;99155.97;5062177;28;20495;-65
2022/04/05 09:00:01;;;;;;;5.63;4.80;;;;;;;8.97;82.03;99155.38;5062976;28;20444;-65
2022/04/05 09:02:28;;;;;;;6.00;4.43;;;;;;;8.95;82.53;99151.22;5062080;28;20476;-65
2022/04/05 09:04:55;;;;;;;5.33;3.90;;;;;;;9.24;81.21;99156.22;5062619;28;20460;-65
2022/04/05 09:07:23;;;;;;;5.80;3.67;;;;;;;9.11;81.35;99153.13;5061180;28;20483;-65
2022/04/05 09:10:13;;;;;;;3.67;3.33;;;;;;;9.31;81.95;99154.59;5062007;28;20481;-65
2022/04/05 09:12:41;;;;;;;5.23;3.90;;;;;;;9.20;82.02;99153.03;5041427;28;20470;-65
2022/04/05 09:15:23;;;;;;;4.57;3.83;;;;;;;9.30;82.26;99150.22;5042391;28;20711;-65
2022/04/05 09:17:50;;;;;;;7.93;4.70;;;;;;;9.46;81.99;99148.63;5042950;28;20426;-65
2022/04/05 09:20:18;;;;;;;5.67;4.90;;;;;;;9.48;81.73;99158.16;5041317;28;20441;-65
2022/04/05 09:22:45;;;;;;;5.43;4.20;;;;;;;9.44;82.19;99151.47;5041480;28;20480;-65
2022/04/05 09:25:15;;;;;;;4.20;3.80;;;;;;;9.52;82.17;99143.50;5052585;28;20451;-65
2022/04/05 09:27:50;;;;;;;4.33;3.93;;;;;;;10.12;80.35;99147.84;5062192;28;20735;-65
2022/04/05 09:30:18;;;;;;;4.40;4.00;;;;;;;10.32;79.10;99150.22;5061615;28;20514;-65
2022/04/05 09:32:48;;;;;;;3.70;3.40;;;;;;;10.10;79.44;99149.84;5061611;28;20448;-65
2022/04/05 09:35:15;;;;;;;5.60;3.87;;;;;;;9.99;80.04;99144.81;5061542;28;20443;-65
2022/04/05 09:37:42;;;;;;;4.97;3.60;;;;;;;9.56;80.57;99144.84;5061472;28;20457;-65
2022/04/05 09:40:22;;;;;;;3.97;2.90;;;;;;;9.75;79.92;99143.72;5061474;28;20471;-65
2022/04/05 09:43:02;;;;;;;4.13;3.60;;;;;;;9.29;81.59;99155.72;5061552;28;20461;-66
2022/04/05 09:45:46;;;;;;;4.30;3.90;;;;;;;9.33;82.49;99154.44;5060584;28;20568;-66
2022/04/05 09:48:13;;;;;;;3.70;3.40;;;;;;;9.62;81.81;99154.06;5061935;28;20417;-66
2022/04/05 09:50:58;;;;;;;3.20;2.63;;;;;;;9.41;82.10;99152.63;5059923;28;20483;-66
2022/04/05 09:53:25;;;;;;;4.40;2.93;;;;;;;9.41;82.68;99143.81;5060864;28;20470;-66
2022/04/05 09:56:04;;;;;;;3.50;3.20;;;;;;;9.46;83.58;99146.81;5061218;28;20472;-66
2022/04/05 09:58:31;;;;;;;4.40;3.40;;;;;;;9.60;83.29;99148.88;5061740;28;20439;-66
2022/04/05 10:01:07;;;;;;;7.30;3.90;;;;;;;9.54;83.94;99148.69;5061019;28;20487;-66
2022/04/05 10:03:35;;;;;;;4.50;3.33;;;;;;;9.44;84.06;99146.13;5060877;28;20452;-66
2022/04/05 10:06:03;;;;;;;3.50;3.20;;;;;;;9.34;84.08;99146.28;5060624;28;21007;-66
2022/04/05 10:08:31;;;;;;;3.87;3.43;;;;;;;9.40;84.82;99142.94;5060896;28;20441;-66
2022/04/05 10:10:58;;;;;;;4.73;3.43;;;;;;;9.54;84.45;99143.34;5060103;28;20821;-66
2022/04/05 10:13:26;;;;;;;3.30;3.00;;;;;;;9.95;82.78;99138.97;5060179;28;21003;-66
2022/04/05 10:15:54;;;;;;;4.03;3.10;;;;;;;10.03;81.87;99142.63;5060551;28;20467;-66
2022/04/05 10:18:22;;;;;;;3.63;3.33;;;;;;;9.76;82.37;99137.41;5061725;28;20425;-66
2022/04/05 10:20:50;;;;;;;4.20;3.80;;;;;;;9.41;83.77;99141.97;5060356;28;20473;-65
2022/04/05 10:23:20;;;;;;;3.80;3.50;;;;;;;9.23;84.43;99141.19;5056214;28;20784;-65
2022/04/05 10:25:48;;;;;;;3.50;3.07;;;;;;;8.96;85.69;99134.25;5062158;28;20477;-65
2022/04/05 10:28:16;;;;;;;6.17;4.07;;;;;;;9.08;86.38;99134.78;5059148;28;20461;-65
2022/04/05 10:30:45;;;;;;;4.13;3.37;;;;;;;9.19;86.36;99139.84;5058373;28;20477;-67
2022/04/05 10:33:16;;;;;;;4.70;3.63;;;;;;;9.67;85.63;99129.53;5077363;28;20455;-65
2022/04/05 10:35:44;;;;;;;3.80;2.93;;;;;;;9.60;85.01;99124.84;5079296;28;20471;-66
2022/04/05 10:38:12;;;;;;;2.73;2.53;;;;;;;9.40;84.40;99121.59;5063917;28;20452;-66
2022/04/05 10:40:39;;;;;;;3.50;3.10;;;;;;;9.56;84.18;99128.00;5058595;28;20489;-65
2022/04/05 10:43:17;;;;;;;2.47;2.27;;;;;;;9.71;83.66;99129.06;5059351;28;20621;-68
2022/04/05 10:45:45;;;;;;;2.23;2.03;;;;;;;9.57;84.29;99111.84;5078897;28;20471;-65
2022/04/05 10:48:14;;;;;;;2.40;2.00;;;;;;;9.88;84.78;99111.25;5070890;28;20437;-65
2022/04/05 10:50:43;;;;;;;1.63;1.53;;;;;;;9.82;84.03;99111.88;5056956;28;20464;-65
2022/04/05 10:53:18;;;;;;;1.70;1.47;;;;;;;9.85;84.26;99103.56;5058848;28;20448;-65
2022/04/05 10:56:15;;;;;;;2.90;1.67;;;;;;;9.67;85.06;99109.03;5058335;28;20483;-65
2022/04/05 10:58:57;;;;;;;1.60;1.50;;;;;;;9.88;85.02;99107.75;5058959;28;20434;-65
2022/04/05 11:01:28;;;;;;;1.33;1.17;;;;;;;9.54;85.34;99109.47;5043622;28;21017;-66
2022/04/05 11:04:29;;;;;;;0.87;0.83;;;;;;;9.60;84.88;99095.50;5058937;28;20495;-66
2022/04/05 11:07:10;;;;;;;1.50;1.40;;;;;;;9.69;85.71;99088.34;5031831;28;20690;-66
2022/04/05 11:09:46;;;;;;;2.07;1.47;;;;;;;9.66;85.69;99096.69;5058911;28;20967;-66
2022/04/05 11:12:18;;;;;;;1.93;1.37;;;;;;;9.86;85.12;99093.72;5058465;28;20579;-66
2022/04/05 11:14:49;;;;;;;1.80;1.70;;;;;;;9.79;85.02;99094.38;5059325;28;20417;-66
2022/04/05 11:17:19;;;;;;;2.23;1.83;;;;;;;9.48;85.61;99093.28;5058527;28;20496;-66
2022/04/05 11:19:47;;;;;;;1.90;1.80;;;;;;;9.48;87.15;99096.81;5058166;28;20445;-66
2022/04/05 11:22:34;;;;;;;2.17;1.73;;;;;;;9.52;88.18;99097.31;5057336;28;20503;-66
2022/04/05 11:25:04;;;;;;;2.10;1.90;;;;;;;9.55;87.34;99092.50;5058814;28;20515;-66
2022/04/05 11:27:34;;;;;;;3.17;2.60;;;;;;;9.46;87.46;99087.28;5058355;28;20567;-66
2022/04/05 11:30:38;;;;;;;2.80;2.60;;;;;;;9.60;87.31;99090.16;5058907;28;20483;-68
2022/04/05 11:33:41;;;;;;;3.50;2.97;;;;;;;10.07;87.33;99096.75;5057788;28;20476;-66
2022/04/05 11:36:10;;;;;;;4.10;3.63;;;;;;;9.92;86.49;99093.06;5058381;28;20479;-66
2022/04/05 11:38:38;;;;;;;4.97;3.90;;;;;;;10.14;86.28;99094.25;5058340;28;20449;-66
2022/04/05 11:41:09;;;;;;;4.97;4.40;;;;;;;10.32;84.55;99094.13;5057796;28;20500;-66
2022/04/05 11:43:39;;;;;;;6.63;4.50;;;;;;;10.31;84.58;99092.41;5058244;28;20483;-66
2022/04/05 11:46:07;;;;;;;5.50;4.17;;;;;;;10.57;83.54;99086.91;5057888;28;20500;-66